»·PEaware :: N2442P KGPI-KBZN

N2442P :: KGPI-KBZN

FLIGHT INFORMATION

Flight Status: Arrived
Operator: Privately registered:
United States
More flights under this callsign
Pilot: Ken Q. (14290)
Aircraft: MOONEY M-20K/M ENCORE BRAVO
(M20T)
More flights by this aircraft type
Origin: KGPI Glacier Park Intl
United States
Destination: KBZN Gallatin
United States
More flights between these airports :: More routes between these airports
Route: HLN BZN
File this flight plan on PilotEdge
Remarks: Going to Oshkosh
Altitude:
(Current/Filed)
11,500ft
Speed:
(Current/Filed)
175kts
Departed: 05-Jul-22 11:36 AM
Arrived: 05-Jul-22 12:48 PM
Distance/Time
Traveled:
198nm/1:12
Distance/Time
To Go:
Arrived

Flight Plot

Page will automatically refresh every two minutes.

Flight plan parsing failed; only flown route is shown


Map Options




Map Legend


Flown Route
Filed Route
Departure Airport
Arrival Airport
Navaid (VOR, NDB)
Fix

Horizontal Profiles

Position Reports

Time Latitude Longitude Heading Altitude Ground
Speed
05-Jul-22 11:03 48.310289 -114.249136 326 2972ft 0kts
05-Jul-22 11:04 48.310289 -114.249136 326 2972ft 0kts
05-Jul-22 11:05 48.310289 -114.249136 326 2972ft 0kts
05-Jul-22 11:06 48.310289 -114.249136 326 2972ft 0kts
05-Jul-22 11:07 48.310289 -114.249136 326 2972ft 0kts
05-Jul-22 11:08 48.310289 -114.249136 326 2972ft 0kts
05-Jul-22 11:09 48.310289 -114.249136 326 2972ft 0kts
05-Jul-22 11:10 48.310289 -114.249136 326 2972ft 0kts
05-Jul-22 11:11 48.310289 -114.249136 326 2972ft 0kts
05-Jul-22 11:12 48.310289 -114.249136 326 2972ft 0kts
05-Jul-22 11:13 48.310289 -114.249136 326 2972ft 0kts
05-Jul-22 11:14 48.310289 -114.249136 326 2972ft 0kts
05-Jul-22 11:15 48.310289 -114.249136 326 2972ft 0kts
05-Jul-22 11:16 48.310289 -114.249136 326 2972ft 0kts
05-Jul-22 11:17 48.310289 -114.249136 326 2972ft 0kts
05-Jul-22 11:18 48.310289 -114.249136 326 2972ft 0kts
05-Jul-22 11:19 48.310289 -114.249136 326 2972ft 0kts
05-Jul-22 11:20 48.310289 -114.249136 326 2972ft 0kts
05-Jul-22 11:21 48.310289 -114.249136 326 2972ft 0kts
05-Jul-22 11:22 48.310289 -114.249136 326 2972ft 0kts
05-Jul-22 11:23 48.310289 -114.249137 326 2972ft 0kts
05-Jul-22 11:24 48.310289 -114.249137 326 2972ft 0kts
05-Jul-22 11:25 48.310290 -114.249137 326 2972ft 0kts
05-Jul-22 11:26 48.310290 -114.249137 326 2972ft 0kts
05-Jul-22 11:27 48.310290 -114.249137 326 2972ft 0kts
05-Jul-22 11:28 48.310290 -114.249137 326 2972ft 0kts
05-Jul-22 11:29 48.310290 -114.249137 326 2972ft 0kts
05-Jul-22 11:30 48.310290 -114.249138 326 2972ft 0kts
05-Jul-22 11:31 48.310867 -114.249989 314 2972ft 23kts
05-Jul-22 11:32 48.314244 -114.249487 34 2972ft 35kts
05-Jul-22 11:33 48.318427 -114.245626 321 2972ft 0kts
05-Jul-22 11:34 48.318531 -114.245758 316 2972ft 10kts
05-Jul-22 11:35 48.313982 -114.251842 214 2973ft 83kts
05-Jul-22 11:36 48.290128 -114.271228 164 3785ft 107kts
05-Jul-22 11:37 48.264642 -114.245397 146 4820ft 115kts
05-Jul-22 11:38 48.238336 -114.213419 134 5879ft 133kts
05-Jul-22 11:39 48.212401 -114.170457 134 6985ft 138kts
05-Jul-22 11:40 48.187057 -114.127828 134 8026ft 128kts
05-Jul-22 11:41 48.164464 -114.089086 134 8925ft 125kts
05-Jul-22 11:42 48.140653 -114.047610 134 9617ft 138kts
05-Jul-22 11:43 48.114969 -114.001327 134 10166ft 154kts
05-Jul-22 11:44 48.086260 -113.949882 135 10673ft 164kts
05-Jul-22 11:45 48.057610 -113.897539 135 11154ft 166kts
05-Jul-22 11:46 48.026885 -113.844651 138 11511ft 176kts
05-Jul-22 11:47 47.992471 -113.787046 138 11499ft 192kts
05-Jul-22 11:48 47.956315 -113.727139 139 11492ft 195kts
05-Jul-22 11:49 47.917730 -113.670441 142 11495ft 194kts
05-Jul-22 11:50 47.878972 -113.614337 142 11495ft 194kts
05-Jul-22 11:51 47.840534 -113.558584 142 11501ft 191kts
05-Jul-22 11:52 47.802455 -113.504264 143 11506ft 189kts
05-Jul-22 11:53 47.762682 -113.453184 146 11500ft 188kts
05-Jul-22 11:54 47.722882 -113.402692 146 11509ft 188kts
05-Jul-22 11:55 47.682456 -113.353778 149 11507ft 186kts
05-Jul-22 11:56 47.641412 -113.306908 149 11508ft 186kts
05-Jul-22 11:57 47.600374 -113.260060 148 11504ft 186kts
05-Jul-22 11:58 47.559150 -113.213069 149 11507ft 186kts
05-Jul-22 11:59 47.518279 -113.166497 149 11513ft 186kts
05-Jul-22 12:00 47.477852 -113.118333 147 11508ft 186kts
05-Jul-22 12:01 47.438064 -113.069722 147 11505ft 186kts
05-Jul-22 12:02 47.398192 -113.021037 147 11512ft 186kts
05-Jul-22 12:03 47.358660 -112.971246 144 11513ft 187kts
05-Jul-22 12:04 47.320519 -112.919074 144 11513ft 187kts
05-Jul-22 12:05 47.282484 -112.867008 144 11518ft 186kts
05-Jul-22 12:06 47.244525 -112.815032 144 11544ft 186kts
05-Jul-22 12:07 47.206594 -112.763139 143 11542ft 186kts
05-Jul-22 12:08 47.168493 -112.711221 144 11534ft 186kts
05-Jul-22 12:09 47.130435 -112.659129 144 11536ft 191kts
05-Jul-22 12:10 47.091553 -112.605867 144 11530ft 188kts
05-Jul-22 12:11 47.053321 -112.553262 144 11530ft 189kts
05-Jul-22 12:12 47.014883 -112.500572 144 11533ft 190kts
05-Jul-22 12:13 46.976237 -112.447646 144 11537ft 194kts
05-Jul-22 12:14 46.936764 -112.393468 144 11526ft 197kts
05-Jul-22 12:15 46.896978 -112.338962 143 11537ft 196kts
05-Jul-22 12:16 46.857776 -112.285159 144 11523ft 188kts
05-Jul-22 12:17 46.820254 -112.232670 144 11522ft 185kts
05-Jul-22 12:18 46.783144 -112.180630 144 11522ft 184kts
05-Jul-22 12:19 46.746077 -112.129307 146 11524ft 183kts
05-Jul-22 12:20 46.708429 -112.079525 146 11508ft 183kts
05-Jul-22 12:21 46.669819 -112.030116 147 11513ft 190kts
05-Jul-22 12:22 46.629371 -111.979772 147 11471ft 191kts
05-Jul-22 12:23 46.589584 -111.930304 151 11482ft 181kts
05-Jul-22 12:24 46.548932 -111.887656 152 11471ft 179kts
05-Jul-22 12:25 46.508230 -111.845366 153 11484ft 184kts
05-Jul-22 12:26 46.465079 -111.803627 154 11488ft 188kts
05-Jul-22 12:27 46.421652 -111.761922 154 11473ft 189kts
05-Jul-22 12:28 46.378386 -111.720369 154 11241ft 183kts
05-Jul-22 12:29 46.338091 -111.683297 154 10679ft 161kts
05-Jul-22 12:30 46.300444 -111.649822 154 10095ft 161kts
05-Jul-22 12:31 46.261194 -111.617018 155 9489ft 162kts
05-Jul-22 12:32 46.221856 -111.585981 155 8872ft 157kts
05-Jul-22 12:34 46.183142 -111.555180 153 8320ft 166kts
05-Jul-22 12:35 46.142267 -111.521852 153 7702ft 166kts
05-Jul-22 12:36 46.107667 -111.492941 148 7475ft 144kts
05-Jul-22 12:37 46.076157 -111.461403 146 7206ft 140kts
05-Jul-22 12:38 46.044444 -111.427843 146 6796ft 150kts
05-Jul-22 12:39 46.009323 -111.391048 146 6481ft 149kts
05-Jul-22 12:40 45.976143 -111.355519 144 6282ft 154kts
05-Jul-22 12:41 45.942130 -111.319182 142 5987ft 145kts
05-Jul-22 12:42 45.912735 -111.286357 142 5536ft 130kts
05-Jul-22 12:43 45.887167 -111.258419 149 5486ft 104kts
05-Jul-22 12:44 45.860581 -111.240617 156 5389ft 104kts
05-Jul-22 12:45 45.835128 -111.223651 152 5101ft 97kts
05-Jul-22 12:46 45.813107 -111.201567 137 4814ft 97kts
05-Jul-22 12:47 45.794035 -111.174711 134 4666ft 92kts
05-Jul-22 12:48 45.780131 -111.155545 148 4474ft 24kts
05-Jul-22 12:49 45.776334 -111.154222 136 4474ft 20kts
05-Jul-22 12:50 45.772764 -111.151216 208 4474ft 15kts
05-Jul-22 12:51 45.772916 -111.152035 314 4474ft 0kts
05-Jul-22 12:52 45.772916 -111.152035 314 4474ft 0kts
05-Jul-22 12:53 45.772916 -111.152035 314 4474ft 0kts
05-Jul-22 12:54 45.772916 -111.152035 314 4474ft 0kts
05-Jul-22 12:54 45.772916 -111.152035 314 4474ft 0kts

Navigation Log

Ident Type
Flight plan parsing failed, navigation log unavailable